This is the latest recevied weather packets stored in our database for station/object DO7CRZ-12. If no packets are shown the sender has not sent any weather packets the latest 10 day(s).
| Time | Temp. | Humidity | Pressure | Rain* | Wind** | Luminosity | Snow |
|---|---|---|---|---|---|---|---|
| 1777547244 | 21.67° C | 16% | 1030.7 hPa | 0 mm | - | 613 W/m² | - |
| 1777546641 | 21.11° C | 16% | 1030.8 hPa | 0 mm | - | 462 W/m² | - |
| 1777546038 | 22.22° C | 15% | 1030.9 hPa | 0 mm | - | 381 W/m² | - |
| 1777545435 | 23.33° C | 17% | 1031 hPa | 0 mm | - | 541 W/m² | - |
| 1777544848 | 23.33° C | 19% | 1031.3 hPa | 0 mm | - | 681 W/m² | - |
| 1777544245 | 22.22° C | 17% | 1031.3 hPa | 0 mm | - | 684 W/m² | - |
| 1777543642 | 21.11° C | 16% | 1031.7 hPa | 0 mm | - | 387 W/m² | - |
| 1777543039 | 20.56° C | 17% | 1031.5 hPa | 0 mm | - | 653 W/m² | - |
| 1777542436 | 18.89° C | 20% | 1031.6 hPa | 0 mm | - | 576 W/m² | - |
| 1777541848 | 18.33° C | 19% | 1031.7 hPa | 0 mm | - | 301 W/m² | - |
| 1777541245 | 19.44° C | 19% | 1031.7 hPa | 0 mm | - | 365 W/m² | - |
| 1777540642 | 18.89° C | 20% | 1031.8 hPa | 0 mm | - | 323 W/m² | - |
| 1777540039 | 18.89° C | 19% | 1031.8 hPa | 0 mm | - | 297 W/m² | - |
| 1777539437 | 18.33° C | 21% | 1031.8 hPa | 0 mm | - | 434 W/m² | - |
| 1777538849 | 17.78° C | 21% | 1031.7 hPa | 0 mm | - | 259 W/m² | - |
| 1777538246 | 19.44° C | 19% | 1031.8 hPa | 0 mm | - | 305 W/m² | - |
| 1777537040 | 17.78° C | 26% | 1032.1 hPa | 0 mm | - | 420 W/m² | - |
| 1777536438 | 13.89° C | 31% | 1031.9 hPa | 0 mm | - | 363 W/m² | - |
| 1777535850 | 10.56° C | 38% | 1031.9 hPa | 0 mm | - | 112 W/m² | - |
| 1777535247 | 8.89° C | 41% | 1032.1 hPa | 0 mm | - | 29 W/m² | - |
| 1777534644 | 8.33° C | 44% | 1032.2 hPa | 0 mm | - | 27 W/m² | - |
| 1777534041 | 8.33° C | 46% | 1032.1 hPa | 0 mm | - | 25 W/m² | - |
| 1777533438 | 7.78° C | 45% | 1032 hPa | 0 mm | - | 24 W/m² | - |
| 1777532835 | 7.22° C | 47% | 1032.1 hPa | 0 mm | - | 23 W/m² | - |
| 1777532247 | 6.67° C | 52% | 1032.1 hPa | 0 mm | - | 22 W/m² | - |
* Rain latest hour (hover to see other rain measurements)
** Current wind speed in m/s (hover to see current wind gust speed)